Time;durP1;ratioP1;P1;durP2;ratioP2;P2;SDS_P1;SDS_P2;PMS_P1;PMS_P2;Temp;Humidity;BMP_temperature;BMP_pressure;BME280_temperature;BME280_humidity;BME280_pressure;Samples;Min_cycle;Max_cycle;Signal;HPM_P1;HPM_P2
2023/05/05 00:00:50;;;;;;;1.77;1.67;;;;;13.30;96109.00;;;;5033273;28;20180;-53
2023/05/05 00:03:29;;;;;;;1.13;1.13;;;;;13.20;96114.00;;;;5032813;28;20227;-53
2023/05/05 00:05:58;;;;;;;1.00;1.00;;;;;13.20;96103.00;;;;5032952;28;20181;-53
2023/05/05 00:08:28;;;;;;;1.33;1.23;;;;;13.30;96105.00;;;;5032814;28;20191;-53
2023/05/05 00:11:03;;;;;;;1.37;1.37;;;;;13.30;96112.00;;;;5033091;28;20541;-53
2023/05/05 00:13:32;;;;;;;1.17;1.17;;;;;13.30;96112.00;;;;5033289;28;20216;-53
2023/05/05 00:16:07;;;;;;;0.93;0.93;;;;;13.20;96112.00;;;;5032754;28;20200;-53
2023/05/05 00:18:34;;;;;;;2.33;1.97;;;;;13.20;96110.00;;;;5033185;28;20291;-53
2023/05/05 00:21:05;;;;;;;1.43;1.33;;;;;13.20;96116.00;;;;5032719;28;20192;-53
2023/05/05 00:23:37;;;;;;;1.70;1.63;;;;;13.10;96107.00;;;;5033167;28;20213;-53
2023/05/05 00:26:12;;;;;;;1.47;1.37;;;;;13.20;96115.00;;;;5032707;28;20193;-53
2023/05/05 00:28:43;;;;;;;1.10;1.10;;;;;13.20;96106.00;;;;5032641;28;20705;-53
2023/05/05 00:31:14;;;;;;;1.07;1.07;;;;;13.30;96104.00;;;;5032655;28;20169;-53
2023/05/05 00:33:43;;;;;;;2.10;1.77;;;14.00;57.00;13.20;96107.00;;;;5032734;28;20308;-53
2023/05/05 00:36:12;;;;;;;1.10;1.10;;;13.90;57.40;13.20;96115.00;;;;5032302;28;20209;-53
2023/05/05 00:38:41;;;;;;;1.47;1.37;;;13.90;57.80;13.20;96110.00;;;;5032309;28;20691;-53
2023/05/05 00:41:09;;;;;;;0.90;0.90;;;13.80;57.70;13.10;96115.00;;;;5032415;28;20220;-53
2023/05/05 00:43:36;;;;;;;1.40;1.27;;;13.80;57.70;13.10;96110.00;;;;5032310;28;20274;-53
2023/05/05 00:46:22;;;;;;;1.23;1.23;;;13.80;57.60;13.10;96111.00;;;;5035284;28;20732;-53
2023/05/05 00:48:49;;;;;;;1.00;1.00;;;13.70;57.90;12.90;96108.00;;;;5035978;28;20185;-53
2023/05/05 00:51:17;;;;;;;0.73;0.73;;;13.60;57.90;13.10;96087.00;;;;5035933;28;20190;-53
2023/05/05 00:53:44;;;;;;;2.10;1.97;;;13.70;58.20;13.00;96100.00;;;;5035737;28;20213;-53
2023/05/05 00:56:13;;;;;;;1.90;1.17;;;13.70;58.00;13.10;96100.00;;;;5036171;28;20557;-53
2023/05/05 00:58:42;;;;;;;1.20;1.20;;;13.70;58.10;13.00;96097.00;;;;5036268;28;20304;-53
2023/05/05 01:01:12;;;;;;;1.80;1.70;;;13.70;57.80;13.00;96084.00;;;;5035794;28;20211;-53
2023/05/05 01:03:40;;;;;;;2.17;1.70;;;13.70;57.50;13.00;96092.00;;;;5035727;28;20690;-53
2023/05/05 01:06:39;;;;;;;1.63;1.53;;;13.70;57.40;13.00;96086.00;;;;5035767;28;20189;-53
2023/05/05 01:09:20;;;;;;;1.80;1.37;;;13.70;57.60;12.90;96095.00;;;;5035769;28;20205;-53
2023/05/05 01:11:59;;;;;;;1.53;1.43;;;13.60;57.80;12.80;96087.00;;;;5035867;28;20542;-53
2023/05/05 01:14:38;;;;;;;7.57;1.63;;;13.60;57.60;12.70;96078.00;;;;5035544;28;20259;-53
2023/05/05 01:17:16;;;;;;;1.30;1.30;;;13.50;57.60;12.80;96078.00;;;;5034336;28;20285;-53
2023/05/05 01:20:11;;;;;;;2.03;1.93;;;13.50;58.30;12.70;96079.00;;;;5035493;28;20211;-53
2023/05/05 01:22:45;;;;;;;0.90;0.90;;;13.20;57.10;12.60;96090.00;;;;5035653;28;20208;-54
2023/05/05 01:25:39;;;;;;;1.00;1.00;;;13.20;57.90;12.50;96093.00;;;;5035411;28;20231;-53
2023/05/05 01:28:38;;;;;;;1.50;1.43;;;13.10;58.20;12.50;96090.00;;;;5035637;28;20188;-53
2023/05/05 01:31:32;;;;;;;1.67;1.57;;;13.20;59.10;12.50;96091.00;;;;5035340;28;20189;-54
2023/05/05 01:34:05;;;;;;;1.53;1.43;;;13.20;59.30;12.60;96092.00;;;;5033956;28;20204;-53
2023/05/05 01:36:41;;;;;;;1.80;1.70;;;13.20;59.50;12.60;96094.00;;;;5035633;28;20522;-53
2023/05/05 01:39:14;;;;;;;4.40;1.60;;;13.20;71.90;12.50;96097.00;;;;5033867;28;20213;-53
2023/05/05 01:41:45;;;;;;;2.53;1.27;;;13.20;71.60;12.70;96088.00;;;;5035620;28;20697;-53
2023/05/05 01:44:17;;;;;;;1.00;1.00;;;13.20;83.60;12.70;96092.00;;;;5056409;22;20235;-64
2023/05/05 01:46:48;;;;;;;1.53;1.53;;;13.30;74.40;12.70;96089.00;;;;5053778;28;20181;-64
2023/05/05 01:49:16;;;;;;;1.10;1.10;;;13.40;70.40;12.80;96080.00;;;;5055551;28;20246;-66
2023/05/05 01:51:45;;;;;;;1.00;1.00;;;;;12.70;96082.00;;;;5054926;28;20188;-65
2023/05/05 01:54:16;;;;;;;1.90;1.37;;;13.40;79.20;12.80;96093.00;;;;5054759;28;20220;-64
2023/05/05 01:56:44;;;;;;;1.03;1.03;;;13.50;75.80;12.70;96088.00;;;;5053894;28;20181;-64
2023/05/05 01:59:13;;;;;;;1.87;1.77;;;13.40;75.30;12.70;96095.00;;;;5054952;28;20220;-64
2023/05/05 02:01:43;;;;;;;1.10;1.10;;;13.40;82.30;12.70;96092.00;;;;5054862;28;20246;-64
2023/05/05 02:04:14;;;;;;;1.60;1.50;;;13.40;85.10;12.90;96108.00;;;;5054696;28;20208;-64
2023/05/05 02:06:46;;;;;;;2.13;2.00;;;13.50;85.00;12.80;96102.00;;;;5055000;28;20184;-64
2023/05/05 02:09:15;;;;;;;2.60;1.90;;;;;12.70;96104.00;;;;5054885;28;20186;-64
2023/05/05 02:11:43;;;;;;;0.93;0.93;;;13.10;80.40;12.60;96105.00;;;;5054792;28;20560;-64
2023/05/05 02:14:12;;;;;;;0.80;0.80;;;13.30;86.20;12.70;96103.00;;;;5054433;28;20678;-64
2023/05/05 02:16:42;;;;;;;1.60;1.50;;;13.70;99.90;12.60;96107.00;;;;5055256;28;20552;-63
2023/05/05 02:19:11;;;;;;;1.10;1.10;;;;;12.60;96112.00;;;;5052987;28;20224;-63
2023/05/05 02:21:39;;;;;;;1.10;1.10;;;;;12.50;96115.00;;;;5054324;28;20678;-63
2023/05/05 02:24:08;;;;;;;0.80;0.80;;;13.20;74.30;12.40;96102.00;;;;5054191;28;20606;-64
2023/05/05 02:26:40;;;;;;;1.20;1.20;;;13.20;75.50;12.30;96110.00;;;;5052970;28;20204;-63
2023/05/05 02:29:14;;;;;;;1.30;1.20;;;13.00;90.60;12.10;96114.00;;;;5054227;28;20172;-63
2023/05/05 02:31:48;;;;;;;1.10;1.00;;;12.90;83.70;12.20;96108.00;;;;5054441;28;20175;-63
2023/05/05 02:34:24;;;;;;;1.10;1.10;;;;;12.20;96117.00;;;;5054258;28;20212;-63
2023/05/05 02:36:56;;;;;;;6.30;1.80;;;12.80;92.70;12.10;96112.00;;;;5054244;28;20186;-63
2023/05/05 02:39:31;;;;;;;1.37;1.27;;;12.90;91.90;12.10;96119.00;;;;5054163;28;20200;-63
2023/05/05 02:42:02;;;;;;;1.87;1.70;;;12.80;81.70;12.10;96106.00;;;;5054517;28;20180;-63
2023/05/05 02:44:32;;;;;;;2.47;2.27;;;12.80;85.10;12.10;96117.00;;;;5053703;28;20286;-63
2023/05/05 02:46:59;;;;;;;1.50;1.43;;;12.80;83.30;12.00;96118.00;;;;5053916;28;20187;-63
2023/05/05 02:49:28;;;;;;;1.10;1.10;;;12.80;85.50;11.90;96122.00;;;;5053798;28;20200;-63
2023/05/05 02:51:56;;;;;;;0.90;0.90;;;;;11.90;96121.00;;;;5052476;28;20203;-63
2023/05/05 02:54:24;;;;;;;0.77;0.77;;;;;11.90;96128.00;;;;5053775;28;20326;-63
2023/05/05 02:56:53;;;;;;;1.23;1.13;;;12.60;87.00;12.00;96120.00;;;;5052366;28;20253;-63
2023/05/05 02:59:35;;;;;;;0.90;0.90;;;12.80;89.50;12.00;96123.00;;;;5053726;28;20223;-63
2023/05/05 03:02:11;;;;;;;1.43;1.20;;;;;12.00;96122.00;;;;5053938;28;20187;-64
2023/05/05 03:04:45;;;;;;;1.40;1.30;;;;;12.10;96122.00;;;;5053565;28;20204;-65
2023/05/05 03:07:18;;;;;;;1.27;1.27;;;12.60;93.70;12.10;96122.00;;;;5053505;28;20354;-64
2023/05/05 03:09:51;;;;;;;0.80;0.80;;;;;11.90;96120.00;;;;5053590;28;20199;-63
2023/05/05 03:12:22;;;;;;;1.00;1.00;;;;;12.00;96118.00;;;;5053713;28;20192;-63
2023/05/05 03:14:51;;;;;;;1.37;1.27;;;;;12.10;96120.00;;;;5053544;28;20212;-63
2023/05/05 03:17:20;;;;;;;1.13;1.13;;;;;12.00;96120.00;;;;5053366;28;20195;-63
2023/05/05 03:19:49;;;;;;;0.80;0.80;;;;;12.10;96116.00;;;;5053271;28;20219;-63
2023/05/05 03:22:16;;;;;;;1.47;1.37;;;;;12.10;96107.00;;;;5053569;28;20191;-63
2023/05/05 03:24:49;;;;;;;0.90;0.90;;;12.80;95.70;12.10;96119.00;;;;5053244;28;20219;-63
2023/05/05 03:27:17;;;;;;;1.47;1.40;;;;;12.20;96109.00;;;;5053264;28;20176;-63
2023/05/05 03:29:44;;;;;;;0.87;0.87;;;;;12.20;96115.00;;;;5053201;28;20242;-64
2023/05/05 03:32:11;;;;;;;1.40;1.30;;;;;12.00;96111.00;;;;5053089;28;20195;-63
2023/05/05 03:34:39;;;;;;;1.00;1.00;;;;;12.10;96111.00;;;;5053265;28;20227;-63
2023/05/05 03:37:07;;;;;;;1.00;1.00;;;;;12.10;96109.00;;;;5053267;28;20196;-63
2023/05/05 03:39:35;;;;;;;2.13;1.97;;;;;12.20;96108.00;;;;5051731;28;20230;-63
2023/05/05 03:42:02;;;;;;;1.60;1.50;;;12.90;88.10;12.20;96115.00;;;;5052918;28;20222;-64
2023/05/05 03:44:29;;;;;;;1.50;1.40;;;12.80;92.40;12.10;96111.00;;;;5052793;28;20212;-62
2023/05/05 03:46:56;;;;;;;1.53;1.47;;;;;12.10;96104.00;;;;5053123;28;20188;-63
2023/05/05 03:49:24;;;;;;;1.63;1.53;;;;;12.00;96111.00;;;;5052948;28;20207;-64
2023/05/05 03:51:51;;;;;;;6.70;1.10;;;12.70;83.80;11.90;96106.00;;;;5052942;28;20200;-63
2023/05/05 03:54:19;;;;;;;1.50;1.40;;;12.70;85.30;11.80;96113.00;;;;5052842;28;20204;-63
2023/05/05 03:56:47;;;;;;;0.80;0.80;;;;;12.00;96105.00;;;;5053446;28;20195;-63
2023/05/05 03:59:14;;;;;;;0.80;0.80;;;12.70;85.70;12.00;96107.00;;;;5052780;28;20215;-63
2023/05/05 04:01:41;;;;;;;1.50;1.40;;;12.70;92.80;12.20;96121.00;;;;5052821;28;20266;-63
2023/05/05 04:04:09;;;;;;;1.00;1.00;;;;;12.20;96119.00;;;;5053087;28;20291;-63
2023/05/05 04:06:36;;;;;;;0.87;0.87;;;12.80;99.90;12.20;96116.00;;;;5053066;28;20192;-63
2023/05/05 04:09:04;;;;;;;0.87;0.87;;;;;12.20;96109.00;;;;5052764;28;20200;-63
2023/05/05 04:11:32;;;;;;;1.40;1.30;;;12.80;93.80;12.30;96121.00;;;;5052970;28;20556;-63
2023/05/05 04:13:59;;;;;;;1.50;1.43;;;12.80;99.90;12.30;96115.00;;;;5052657;28;20219;-63
2023/05/05 04:16:26;;;;;;;0.53;0.53;;;12.90;94.10;12.40;96116.00;;;;5052716;28;20185;-63
2023/05/05 04:18:54;;;;;;;2.30;1.93;;;13.00;92.70;12.40;96113.00;;;;5053359;28;20224;-63
2023/05/05 04:21:21;;;;;;;3.93;2.40;;;;;12.30;96127.00;;;;5054809;28;20196;-63
2023/05/05 04:23:49;;;;;;;0.90;0.90;;;;;12.30;96118.00;;;;5056638;28;20215;-64
2023/05/05 04:26:16;;;;;;;1.13;1.13;;;;;12.30;96120.00;;;;5056439;28;20203;-62
2023/05/05 04:28:45;;;;;;;1.00;1.00;;;;;12.30;96118.00;;;;5055172;28;20684;-63
2023/05/05 04:31:12;;;;;;;1.80;1.70;;;12.90;79.90;12.20;96118.00;;;;5056383;28;20203;-63
2023/05/05 04:33:39;;;;;;;1.60;1.50;;;13.00;82.80;12.30;96130.00;;;;5055071;28;20274;-62
2023/05/05 04:36:07;;;;;;;3.57;2.23;;;13.00;76.00;12.40;96114.00;;;;5054975;28;20192;-62
2023/05/05 04:38:34;;;;;;;1.47;1.47;;;;;12.40;96121.00;;;;5056159;28;20713;-63
2023/05/05 04:41:06;;;;;;;2.00;1.77;;;13.00;99.90;12.50;96123.00;;;;5055713;28;20208;-64
2023/05/05 04:43:33;;;;;;;0.80;0.80;;;13.10;77.70;12.40;96130.00;;;;5055904;28;20273;-63
2023/05/05 04:46:01;;;;;;;0.90;0.90;;;;;12.40;96129.00;;;;5056455;28;20575;-65
2023/05/05 04:48:29;;;;;;;1.37;1.33;;;;;12.30;96142.00;;;;5056051;28;20231;-64
2023/05/05 04:50:56;;;;;;;1.03;1.03;;;;;12.30;96137.00;;;;5056036;28;20196;-64
2023/05/05 04:53:23;;;;;;;0.97;0.97;;;13.00;90.30;12.50;96123.00;;;;5056116;28;20203;-64
2023/05/05 04:55:50;;;;;;;1.43;1.43;;;13.10;94.90;12.50;96125.00;;;;5055913;28;20211;-63
2023/05/05 04:58:17;;;;;;;1.90;1.37;;;13.20;87.50;12.60;96113.00;;;;5055987;28;20234;-62
2023/05/05 05:00:45;;;;;;;1.43;1.33;;;;;12.70;96123.00;;;;5055841;28;20214;-62
2023/05/05 05:03:13;;;;;;;0.77;0.77;;;;;12.80;96122.00;;;;5055683;28;20203;-62
2023/05/05 05:05:40;;;;;;;1.30;1.30;;;13.50;77.90;12.90;96124.00;;;;5055765;28;20196;-64
2023/05/05 05:08:08;;;;;;;1.53;1.53;;;;;12.90;96121.00;;;;5055723;28;20188;-62
2023/05/05 05:10:36;;;;;;;0.63;0.63;;;;;13.10;96126.00;;;;5055685;28;20199;-62
2023/05/05 05:13:03;;;;;;;1.07;1.07;;;13.60;62.30;13.10;96128.00;;;;5055598;28;20192;-63
2023/05/05 05:15:30;;;;;;;1.60;1.50;;;13.60;61.90;12.90;96138.00;;;;5055531;28;20212;-63
2023/05/05 05:17:57;;;;;;;1.13;1.13;;;13.60;62.30;13.10;96131.00;;;;5055752;28;20192;-62
2023/05/05 05:20:25;;;;;;;1.33;1.33;;;13.90;62.10;13.40;96137.00;;;;5055618;28;20219;-65
2023/05/05 05:22:52;;;;;;;1.00;1.00;;;14.00;61.90;13.50;96147.00;;;;5055607;28;20200;-63
2023/05/05 05:25:19;;;;;;;1.23;1.23;;;14.10;62.70;13.60;96140.00;;;;5055318;28;20220;-62
2023/05/05 05:27:47;;;;;;;1.77;1.67;;;;;13.80;96142.00;;;;5055336;28;20693;-63
2023/05/05 05:30:15;;;;;;;1.33;1.23;;;;;13.90;96150.00;;;;5055350;28;20196;-65
2023/05/05 05:32:42;;;;;;;1.00;1.00;;;;;13.90;96151.00;;;;5054028;28;20246;-62
2023/05/05 05:35:10;;;;;;;0.70;0.70;;;;;13.90;96139.00;;;;5055386;28;20594;-64
2023/05/05 05:37:39;;;;;;;1.20;1.10;;;;;14.10;96142.00;;;;5055209;28;20203;-63
2023/05/05 05:40:08;;;;;;;1.03;1.03;;;;;14.30;96145.00;;;;5055023;28;20220;-62
2023/05/05 05:42:35;;;;;;;1.20;1.20;;;;;14.40;96152.00;;;;5055358;28;20528;-63
2023/05/05 05:45:03;;;;;;;1.60;1.50;;;;;14.50;96152.00;;;;5054826;28;20219;-62
2023/05/05 05:47:30;;;;;;;1.37;1.27;;;;;14.60;96154.00;;;;5054827;28;20196;-63
2023/05/05 05:49:58;;;;;;;1.33;1.33;;;;;14.80;96157.00;;;;5054866;28;20689;-64
2023/05/05 05:52:25;;;;;;;2.40;1.57;;;;;14.50;96159.00;;;;5055116;28;20190;-63
2023/05/05 05:54:54;;;;;;;1.20;1.17;;;;;14.40;96163.00;;;;5054992;28;20220;-63
2023/05/05 05:57:23;;;;;;;1.97;1.87;;;15.00;59.60;14.30;96163.00;;;;5054725;28;20250;-63
2023/05/05 05:59:50;;;;;;;3.90;2.57;;;15.00;60.10;14.40;96168.00;;;;5054846;28;20220;-63
2023/05/05 06:02:17;;;;;;;1.00;1.00;;;14.90;87.40;14.40;96174.00;;;;5053388;28;20196;-63
2023/05/05 06:04:45;;;;;;;3.37;1.63;;;15.00;62.10;14.40;96168.00;;;;5054580;28;20306;-63
2023/05/05 06:07:12;;;;;;;0.70;0.70;;;15.00;61.20;14.50;96161.00;;;;5054783;28;20223;-63
2023/05/05 06:09:40;;;;;;;0.70;0.70;;;15.00;81.90;14.70;96170.00;;;;5051813;28;20199;-59
2023/05/05 06:12:08;;;;;;;3.80;1.13;;;15.30;62.80;14.70;96166.00;;;;5051244;28;20528;-59
2023/05/05 06:14:36;;;;;;;1.03;1.03;;;15.30;61.30;14.70;96169.00;;;;5052731;28;20212;-59
2023/05/05 06:17:03;;;;;;;1.60;1.10;;;15.30;61.90;14.70;96162.00;;;;5052515;28;20246;-59
2023/05/05 06:19:30;;;;;;;1.67;1.57;;;15.30;60.70;14.70;96173.00;;;;5052339;28;20230;-62
2023/05/05 06:21:57;;;;;;;1.90;1.47;;;15.40;60.70;14.90;96167.00;;;;5050776;28;20196;-62
2023/05/05 06:24:25;;;;;;;1.07;1.07;;;15.50;61.30;14.90;96162.00;;;;5047634;28;20211;-62
2023/05/05 06:26:52;;;;;;;1.13;1.13;;;15.50;60.00;14.90;96161.00;;;;5047525;28;20195;-62
2023/05/05 06:29:21;;;;;;;0.73;0.73;;;;;15.00;96161.00;;;;5052466;28;20274;-63
2023/05/05 06:31:48;;;;;;;5.50;1.87;;;15.60;59.10;15.00;96170.00;;;;5052720;28;20204;-62
2023/05/05 06:34:15;;;;;;;0.77;0.77;;;15.60;59.50;15.00;96168.00;;;;5052228;28;20212;-62
2023/05/05 06:36:42;;;;;;;1.43;1.37;;;15.70;60.60;14.90;96172.00;;;;5052535;28;20586;-63
2023/05/05 06:39:10;;;;;;;0.73;0.73;;;15.50;61.50;14.90;96180.00;;;;5049500;28;20224;-63
2023/05/05 06:41:37;;;;;;;1.60;1.27;;;15.50;61.40;15.00;96171.00;;;;5052210;28;20192;-63
2023/05/05 06:44:05;;;;;;;1.03;1.03;;;15.60;59.50;15.00;96170.00;;;;5051004;28;20212;-62
2023/05/05 06:46:34;;;;;;;1.00;1.00;;;;;15.00;96167.00;;;;5047404;28;20228;-62
2023/05/05 06:49:02;;;;;;;0.70;0.70;;;;;15.10;96169.00;;;;5047056;28;20204;-62
2023/05/05 06:51:30;;;;;;;0.83;0.83;;;;;15.30;96178.00;;;;5051766;28;20273;-63
2023/05/05 06:53:57;;;;;;;1.50;1.43;;;;;15.20;96174.00;;;;5051620;28;20227;-63
2023/05/05 06:56:24;;;;;;;1.30;1.20;;;15.90;58.20;15.20;96172.00;;;;5050425;28;20616;-62
2023/05/05 06:58:51;;;;;;;0.60;0.60;;;15.90;58.90;15.20;96181.00;;;;5051730;28;20196;-62
2023/05/05 07:01:19;;;;;;;0.70;0.70;;;15.90;59.50;15.20;96175.00;;;;5050267;28;20250;-62
2023/05/05 07:03:47;;;;;;;0.63;0.63;;;15.90;60.10;15.20;96176.00;;;;5052081;28;20216;-63
2023/05/05 07:06:14;;;;;;;1.03;1.03;;;15.90;59.40;15.20;96179.00;;;;5046984;28;20279;-62
2023/05/05 07:08:41;;;;;;;1.00;1.00;;;15.90;59.50;15.30;96180.00;;;;5050711;28;20680;-62
2023/05/05 07:11:09;;;;;;;1.00;1.00;;;15.90;60.30;15.30;96183.00;;;;5051365;28;20280;-62
2023/05/05 07:13:36;;;;;;;0.90;0.90;;;15.90;60.70;15.30;96189.00;;;;5052074;28;20647;-62
2023/05/05 07:16:03;;;;;;;2.77;1.33;;;16.00;61.40;15.20;96190.00;;;;5046728;28;20275;-62
2023/05/05 07:18:30;;;;;;;1.43;1.33;;;16.00;60.60;15.30;96197.00;;;;5049080;28;20285;-62
2023/05/05 07:21:00;;;;;;;0.97;0.97;;;16.00;61.20;15.20;96195.00;;;;5051038;28;20224;-62
2023/05/05 07:23:27;;;;;;;1.13;0.90;;;15.70;71.30;15.10;96197.00;;;;5052138;28;20200;-62
2023/05/05 07:25:55;;;;;;;1.70;1.30;;;15.80;72.30;14.90;96196.00;;;;5046925;28;20727;-62
2023/05/05 07:28:22;;;;;;;1.00;1.00;;;15.60;64.40;14.90;96206.00;;;;5065175;28;20208;-63
2023/05/05 07:30:50;;;;;;;1.00;1.00;;;;;14.90;96193.00;;;;5050627;28;20192;-62
2023/05/05 07:33:18;;;;;;;0.90;0.90;;;15.50;63.00;15.00;96201.00;;;;5050352;28;20200;-62
2023/05/05 07:35:45;;;;;;;1.20;1.20;;;15.60;64.20;15.00;96208.00;;;;5046609;28;20200;-63
2023/05/05 07:38:14;;;;;;;0.80;0.80;;;;;15.20;96199.00;;;;5048021;28;20204;-62
2023/05/05 07:40:42;;;;;;;0.83;0.83;;;;;15.20;96203.00;;;;5046082;28;20223;-62
2023/05/05 07:43:09;;;;;;;0.97;0.97;;;;;15.20;96205.00;;;;5050936;28;20211;-62
2023/05/05 07:45:37;;;;;;;1.90;1.80;;;;;15.30;96205.00;;;;5064503;22;20736;-54
2023/05/05 07:48:05;;;;;;;0.60;0.60;;;;;15.40;96200.00;;;;5051006;28;20196;-54
2023/05/05 07:50:32;;;;;;;1.30;1.27;;;;;15.40;96201.00;;;;5050884;28;20192;-54
2023/05/05 07:52:59;;;;;;;1.13;1.00;;;;;15.50;96200.00;;;;5050770;28;20689;-54
2023/05/05 07:55:28;;;;;;;0.83;0.83;;;;;15.60;96200.00;;;;5044454;28;20220;-54
2023/05/05 07:57:56;;;;;;;0.93;0.93;;;;;15.70;96189.00;;;;5035109;28;20258;-54
2023/05/05 08:00:23;;;;;;;1.03;1.03;;;;;15.80;96189.00;;;;5034968;28;20246;-55
2023/05/05 08:02:50;;;;;;;2.20;2.10;;;;;15.70;96193.00;;;;5034929;28;20242;-54
2023/05/05 08:05:18;;;;;;;4.80;1.60;;;;;15.80;96186.00;;;;5034846;28;20220;-54
2023/05/05 08:07:46;;;;;;;1.53;1.43;;;;;15.90;96192.00;;;;5034966;28;20199;-54
2023/05/05 08:10:13;;;;;;;0.73;0.73;;;;;15.90;96190.00;;;;5035431;28;20663;-55
2023/05/05 08:12:42;;;;;;;1.70;1.37;;;;;16.10;96187.00;;;;5054664;28;20667;-55
2023/05/05 08:15:10;;;;;;;0.97;0.97;;;;;16.10;96185.00;;;;5036673;28;20327;-55
2023/05/05 08:17:46;;;;;;;0.77;0.77;;;;;16.10;96185.00;;;;5054622;28;20207;-55
2023/05/05 08:20:13;;;;;;;1.37;1.27;;;;;16.10;96182.00;;;;5054441;28;20243;-55
2023/05/05 08:22:41;;;;;;;0.60;0.60;;;;;16.10;96194.00;;;;5054533;28;20192;-54
2023/05/05 08:25:10;;;;;;;0.63;0.63;;;;;15.80;96192.00;;;;5053978;28;20220;-54
2023/05/05 08:27:38;;;;;;;1.50;1.40;;;;;15.70;96203.00;;;;5054973;28;20200;-54
2023/05/05 08:30:09;;;;;;;0.90;0.90;;;;;15.70;96205.00;;;;5053964;28;20200;-54
2023/05/05 08:32:37;;;;;;;1.23;1.23;;;;;15.50;96198.00;;;;5054707;28;20266;-55
2023/05/05 08:35:06;;;;;;;0.80;0.80;;;;;15.60;96196.00;;;;5053894;28;20220;-53
2023/05/05 08:37:34;;;;;;;3.20;2.17;;;;;15.60;96198.00;;;;5054544;28;20204;-54
2023/05/05 08:40:02;;;;;;;2.10;2.00;;;;;15.60;96198.00;;;;5054170;28;21327;-54
2023/05/05 08:42:30;;;;;;;1.23;1.20;;;;;15.70;96197.00;;;;5054183;28;20204;-56
2023/05/05 08:44:59;;;;;;;0.70;0.70;;;;;15.80;96199.00;;;;5053882;28;20235;-54
2023/05/05 08:47:28;;;;;;;0.80;0.80;;;;;15.70;96200.00;;;;5051024;28;20193;-54
2023/05/05 08:49:58;;;;;;;0.70;0.70;;;;;15.80;96199.00;;;;5034054;28;20285;-54
2023/05/05 08:52:29;;;;;;;0.73;0.73;;;;;16.00;96191.00;;;;5034145;28;20200;-54
2023/05/05 08:55:02;;;;;;;0.97;0.97;;;;;16.10;96193.00;;;;5033886;28;20220;-54
2023/05/05 08:57:40;;;;;;;1.13;1.13;;;;;16.00;96184.00;;;;5029533;28;20666;-54
2023/05/05 09:00:10;;;;;;;1.30;1.20;;;;;16.10;96179.00;;;;5033520;28;20208;-55
2023/05/05 09:02:41;;;;;;;1.20;1.20;;;;;16.20;96184.00;;;;5046799;28;20599;-55
2023/05/05 09:05:09;;;;;;;1.07;1.07;;;;;16.40;96175.00;;;;5053420;28;20239;-54
2023/05/05 09:07:40;;;;;;;1.10;1.10;;;;;16.50;96184.00;;;;5053651;28;20688;-54
2023/05/05 09:10:09;;;;;;;0.60;0.60;;;;;16.50;96185.00;;;;5039659;28;20185;-54
2023/05/05 09:12:40;;;;;;;0.70;0.70;;;;;16.60;96190.00;;;;5033687;28;20295;-54
2023/05/05 09:15:08;;;;;;;1.07;1.07;;;;;16.70;96195.00;;;;5033507;28;20228;-54
2023/05/05 09:17:38;;;;;;;1.10;1.03;;;;;16.70;96188.00;;;;5033592;28;20637;-55
2023/05/05 09:20:07;;;;;;;0.83;0.83;;;;;16.60;96196.00;;;;5033496;28;20212;-54
2023/05/05 09:22:36;;;;;;;1.93;1.60;;;;;16.70;96192.00;;;;5033548;28;20201;-55
2023/05/05 09:25:04;;;;;;;1.20;1.10;;;;;16.70;96189.00;;;;5015588;28;20228;-55
2023/05/05 09:27:35;;;;;;;0.87;0.87;;;;;16.70;96185.00;;;;5033371;28;20211;-54
2023/05/05 09:30:04;;;;;;;0.83;0.83;;;;;16.70;96188.00;;;;5033299;28;20185;-54
2023/05/05 09:32:44;;;;;;;0.80;0.80;;;;;16.60;96188.00;;;;5033314;28;20204;-56
2023/05/05 09:35:11;;;;;;;0.73;0.73;;;;;16.60;96198.00;;;;5030003;28;20695;-54
2023/05/05 09:37:39;;;;;;;0.60;0.60;;;;;16.70;96186.00;;;;5033264;28;20193;-56
2023/05/05 09:40:08;;;;;;;1.00;1.00;;;;;16.60;96195.00;;;;5051210;28;20215;-54
2023/05/05 09:42:37;;;;;;;0.70;0.70;;;;;16.60;96194.00;;;;5048441;28;20225;-54
2023/05/05 09:45:23;;;;;;;0.80;0.80;;;;;16.70;96184.00;;;;5052258;28;20748;-54
2023/05/05 09:47:52;;;;;;;1.80;1.70;;;;;16.60;96184.00;;;;5053345;28;20204;-54
2023/05/05 09:50:20;;;;;;;0.80;0.80;;;;;16.60;96182.00;;;;5032813;28;20207;-54
2023/05/05 09:52:56;;;;;;;1.53;1.43;;;;;16.60;96185.00;;;;5033537;28;20196;-54
2023/05/05 09:55:24;;;;;;;0.67;0.67;;;;;16.60;96177.00;;;;5029171;28;20220;-54
2023/05/05 09:57:51;;;;;;;0.70;0.70;;;;;16.70;96185.00;;;;5013423;28;20216;-54
2023/05/05 10:00:20;;;;;;;1.17;1.07;;;;;16.70;96183.00;;;;5032665;28;20274;-54
2023/05/05 10:02:47;;;;;;;0.80;0.80;;;;;16.70;96184.00;;;;5049439;28;20195;-54
2023/05/05 10:05:17;;;;;;;0.63;0.63;;;;;16.70;96180.00;;;;5052102;28;20251;-54
2023/05/05 10:07:46;;;;;;;1.17;1.07;;;;;16.70;96172.00;;;;5041292;28;20236;-55
2023/05/05 10:10:16;;;;;;;0.83;0.83;;;;;16.70;96184.00;;;;5032168;28;20188;-55
2023/05/05 10:12:48;;;;;;;0.90;0.90;;;;;16.80;96174.00;;;;5035887;28;20195;-55
2023/05/05 10:15:16;;;;;;;0.77;0.77;;;;;16.80;96177.00;;;;5047951;28;20221;-54
2023/05/05 10:17:47;;;;;;;0.87;0.87;;;;;16.90;96165.00;;;;5034012;28;20205;-55
2023/05/05 10:20:18;;;;;;;1.07;1.07;;;;;17.10;96169.00;;;;5052268;28;20204;-54
2023/05/05 10:22:52;;;;;;;4.50;1.33;;;;;17.30;96161.00;;;;5052270;28;20494;-55
2023/05/05 10:25:30;;;;;;;0.90;0.90;;;;;17.50;96157.00;;;;5032380;28;20587;-54
2023/05/05 10:28:00;;;;;;;0.83;0.83;;;;;17.90;96145.00;;;;5032312;28;20310;-55
2023/05/05 10:30:31;;;;;;;1.90;1.10;;;;;18.10;96153.00;;;;5039713;28;20207;-55
2023/05/05 10:33:03;;;;;;;1.60;1.50;;;;;18.60;96153.00;;;;5048843;28;20193;-55
2023/05/05 10:35:36;;;;;;;0.87;0.87;;;;;19.00;96157.00;;;;5051978;28;20220;-55
2023/05/05 10:38:08;;;;;;;0.97;0.97;;;;;19.10;96151.00;;;;5034158;28;20208;-55
2023/05/05 10:40:35;;;;;;;0.97;0.93;;;;;19.20;96142.00;;;;5052298;28;20200;-55
2023/05/05 10:43:03;;;;;;;1.80;0.97;;;;;19.40;96129.00;;;;5051812;28;20690;-55
2023/05/05 10:45:31;;;;;;;0.73;0.73;;;;;19.90;96131.00;;;;5052074;28;20721;-55
2023/05/05 10:48:04;;;;;;;0.70;0.70;;;;;20.20;96127.00;;;;5051361;28;20230;-55
2023/05/05 10:50:38;;;;;;;3.80;1.57;;;;;20.20;96126.00;;;;5027916;28;20205;-55
2023/05/05 10:53:17;;;;;;;0.90;0.90;;;;;20.50;96128.00;;;;5012299;28;20616;-52
2023/05/05 10:55:52;;;;;;;1.27;1.17;;;;;20.40;96119.00;;;;5032005;28;20271;-53
2023/05/05 10:58:35;;;;;;;1.07;0.97;;;;;20.80;96118.00;;;;5031317;28;20189;-53
2023/05/05 11:01:03;;;;;;;0.90;0.90;;;;;20.90;96119.00;;;;5031523;28;20220;-55
2023/05/05 11:03:31;;;;;;;0.80;0.80;;;;;21.20;96117.00;;;;5031584;28;20280;-52
2023/05/05 11:06:13;;;;;;;0.73;0.73;;;;;21.50;96111.00;;;;5031366;28;20213;-53
2023/05/05 11:08:42;;;;;;;0.75;0.75;;;;;21.60;96113.00;;;;5030108;28;20197;-53
2023/05/05 11:11:11;;;;;;;1.40;1.40;;;;;21.60;96112.00;;;;5031347;28;21000;-53
2023/05/05 11:13:40;;;;;;;0.75;0.75;;;;;21.60;96104.00;;;;5031045;28;20204;-53
2023/05/05 11:16:40;;;;;;;0.68;0.68;;;;;21.90;96099.00;;;;5031657;28;20216;-53
2023/05/05 11:19:40;;;;;;;0.93;0.93;;;;;21.60;96101.00;;;;5029453;28;20211;-53
2023/05/05 11:22:10;;;;;;;0.70;0.70;;;;;22.10;96094.00;;;;5020837;28;20235;-53
2023/05/05 11:24:38;;;;;;;0.82;0.82;;;;;22.10;96103.00;;;;5033466;28;20208;-53
2023/05/05 11:27:06;;;;;;;0.63;0.63;;;;;22.30;96096.00;;;;5050978;28;20207;-54
2023/05/05 11:30:07;;;;;;;1.30;1.20;;;;;22.90;96094.00;;;;5051077;28;20203;-53
2023/05/05 11:32:35;;;;;;;0.80;0.80;;;;;22.90;96098.00;;;;5033163;28;20261;-53
2023/05/05 11:35:04;;;;;;;0.90;0.85;;;;;22.80;96071.00;;;;5030512;28;20335;-53
2023/05/05 11:37:34;;;;;;;0.60;0.60;;;;;22.80;96099.00;;;;5031077;28;20675;-54
2023/05/05 11:40:16;;;;;;;0.70;0.70;;;;;22.70;96084.00;;;;5031182;28;20664;-53
2023/05/05 11:42:43;;;;;;;0.45;0.45;;;;;22.70;96078.00;;;;5031339;28;20205;-53
2023/05/05 11:45:24;;;;;;;0.52;0.52;;;;;22.90;96078.00;;;;5030988;28;20717;-53
2023/05/05 11:48:30;;;;;;;0.75;0.75;;;;;23.00;96072.00;;;;5030924;28;20189;-53
2023/05/05 11:51:02;;;;;;;0.50;0.50;;;;;23.10;96081.00;;;;5028476;28;20200;-53
2023/05/05 11:53:31;;;;;;;0.50;0.50;;;;;22.70;96078.00;;;;5030890;28;20192;-53
2023/05/05 11:56:17;;;;;;;11.23;0.80;;;;;22.70;96075.00;;;;5049879;28;20720;-53